sensor_id;sensor_type;location;lat;lon;timestamp;P1;durP1;ratioP1;P2;durP2;ratioP2
63975;SDS011;50167;47.958;21.780;2023-03-23T00:01:36;73.50;;;35.43;;
63975;SDS011;50167;47.958;21.780;2023-03-23T00:04:03;74.93;;;33.60;;
63975;SDS011;50167;47.958;21.780;2023-03-23T00:06:30;75.03;;;34.47;;
63975;SDS011;50167;47.958;21.780;2023-03-23T00:08:58;72.57;;;30.20;;
63975;SDS011;50167;47.958;21.780;2023-03-23T00:11:29;61.40;;;29.50;;
63975;SDS011;50167;47.958;21.780;2023-03-23T00:13:59;69.00;;;31.02;;
63975;SDS011;50167;47.958;21.780;2023-03-23T00:16:27;72.20;;;33.37;;
63975;SDS011;50167;47.958;21.780;2023-03-23T00:19:03;71.80;;;33.53;;
63975;SDS011;50167;47.958;21.780;2023-03-23T00:21:35;80.30;;;34.87;;
63975;SDS011;50167;47.958;21.780;2023-03-23T00:26:39;74.73;;;37.40;;
63975;SDS011;50167;47.958;21.780;2023-03-23T00:29:07;68.77;;;33.20;;
63975;SDS011;50167;47.958;21.780;2023-03-23T00:31:51;69.67;;;32.63;;
63975;SDS011;50167;47.958;21.780;2023-03-23T00:34:18;64.33;;;31.50;;
63975;SDS011;50167;47.958;21.780;2023-03-23T00:36:48;65.70;;;29.57;;
63975;SDS011;50167;47.958;21.780;2023-03-23T00:39:18;62.93;;;29.00;;
63975;SDS011;50167;47.958;21.780;2023-03-23T00:41:45;60.20;;;29.53;;
63975;SDS011;50167;47.958;21.780;2023-03-23T00:44:13;55.97;;;28.97;;
63975;SDS011;50167;47.958;21.780;2023-03-23T00:46:41;63.43;;;29.97;;
63975;SDS011;50167;47.958;21.780;2023-03-23T00:49:19;54.90;;;27.57;;
63975;SDS011;50167;47.958;21.780;2023-03-23T00:51:44;51.35;;;25.68;;
63975;SDS011;50167;47.958;21.780;2023-03-23T00:54:11;54.27;;;29.97;;
63975;SDS011;50167;47.958;21.780;2023-03-23T00:56:38;49.10;;;25.23;;
63975;SDS011;50167;47.958;21.780;2023-03-23T00:59:05;52.50;;;24.83;;
63975;SDS011;50167;47.958;21.780;2023-03-23T01:01:32;55.87;;;27.70;;
63975;SDS011;50167;47.958;21.780;2023-03-23T01:03:59;48.13;;;26.00;;
63975;SDS011;50167;47.958;21.780;2023-03-23T01:06:33;58.27;;;26.57;;
63975;SDS011;50167;47.958;21.780;2023-03-23T01:09:04;53.37;;;26.83;;
63975;SDS011;50167;47.958;21.780;2023-03-23T01:11:33;52.70;;;27.40;;
63975;SDS011;50167;47.958;21.780;2023-03-23T01:14:00;52.40;;;26.23;;
63975;SDS011;50167;47.958;21.780;2023-03-23T01:16:27;46.93;;;27.00;;
63975;SDS011;50167;47.958;21.780;2023-03-23T01:18:53;46.50;;;26.93;;
63975;SDS011;50167;47.958;21.780;2023-03-23T01:21:20;54.73;;;27.93;;
63975;SDS011;50167;47.958;21.780;2023-03-23T01:23:47;50.80;;;27.30;;
63975;SDS011;50167;47.958;21.780;2023-03-23T01:26:17;50.13;;;27.27;;
63975;SDS011;50167;47.958;21.780;2023-03-23T01:28:48;52.70;;;27.53;;
63975;SDS011;50167;47.958;21.780;2023-03-23T01:31:15;46.33;;;23.90;;
63975;SDS011;50167;47.958;21.780;2023-03-23T01:33:44;49.47;;;26.70;;
63975;SDS011;50167;47.958;21.780;2023-03-23T01:36:15;44.47;;;24.57;;
63975;SDS011;50167;47.958;21.780;2023-03-23T01:38:45;47.70;;;24.10;;
63975;SDS011;50167;47.958;21.780;2023-03-23T01:41:13;48.47;;;24.13;;
63975;SDS011;50167;47.958;21.780;2023-03-23T01:43:57;38.73;;;21.43;;
63975;SDS011;50167;47.958;21.780;2023-03-23T01:46:34;41.57;;;22.27;;
63975;SDS011;50167;47.958;21.780;2023-03-23T01:49:47;40.10;;;23.17;;
63975;SDS011;50167;47.958;21.780;2023-03-23T01:51:37;48.07;;;25.93;;
63975;SDS011;50167;47.958;21.780;2023-03-23T01:54:17;42.53;;;24.17;;
63975;SDS011;50167;47.958;21.780;2023-03-23T01:57:01;47.45;;;25.50;;
63975;SDS011;50167;47.958;21.780;2023-03-23T01:59:27;39.80;;;19.87;;
63975;SDS011;50167;47.958;21.780;2023-03-23T02:01:56;36.33;;;21.90;;
63975;SDS011;50167;47.958;21.780;2023-03-23T02:04:22;42.33;;;24.57;;
63975;SDS011;50167;47.958;21.780;2023-03-23T02:06:51;36.67;;;22.23;;
63975;SDS011;50167;47.958;21.780;2023-03-23T02:09:20;36.90;;;22.67;;
63975;SDS011;50167;47.958;21.780;2023-03-23T02:11:46;37.67;;;23.10;;
63975;SDS011;50167;47.958;21.780;2023-03-23T02:14:15;44.70;;;23.30;;
63975;SDS011;50167;47.958;21.780;2023-03-23T02:28:51;36.50;;;21.90;;
63975;SDS011;50167;47.958;21.780;2023-03-23T02:34:20;37.73;;;22.60;;
63975;SDS011;50167;47.958;21.780;2023-03-23T02:36:58;31.47;;;21.47;;
63975;SDS011;50167;47.958;21.780;2023-03-23T02:39:34;39.43;;;22.47;;
63975;SDS011;50167;47.958;21.780;2023-03-23T02:42:06;34.93;;;21.93;;
63975;SDS011;50167;47.958;21.780;2023-03-23T02:44:37;32.63;;;20.05;;
63975;SDS011;50167;47.958;21.780;2023-03-23T02:47:07;37.88;;;21.50;;
63975;SDS011;50167;47.958;21.780;2023-03-23T02:49:44;36.60;;;21.20;;
63975;SDS011;50167;47.958;21.780;2023-03-23T02:52:16;38.55;;;23.30;;
63975;SDS011;50167;47.958;21.780;2023-03-23T02:54:46;40.67;;;22.67;;
63975;SDS011;50167;47.958;21.780;2023-03-23T02:57:15;34.13;;;20.63;;
63975;SDS011;50167;47.958;21.780;2023-03-23T02:59:41;39.43;;;23.93;;
63975;SDS011;50167;47.958;21.780;2023-03-23T03:04:39;41.07;;;22.30;;
63975;SDS011;50167;47.958;21.780;2023-03-23T03:09:50;35.10;;;20.97;;
63975;SDS011;50167;47.958;21.780;2023-03-23T03:17:38;35.27;;;21.50;;
63975;SDS011;50167;47.958;21.780;2023-03-23T03:20:08;37.30;;;21.03;;
63975;SDS011;50167;47.958;21.780;2023-03-23T03:22:39;37.83;;;22.48;;
63975;SDS011;50167;47.958;21.780;2023-03-23T03:25:08;38.07;;;21.90;;
63975;SDS011;50167;47.958;21.780;2023-03-23T03:27:39;40.70;;;22.82;;
63975;SDS011;50167;47.958;21.780;2023-03-23T03:30:11;37.43;;;22.80;;
63975;SDS011;50167;47.958;21.780;2023-03-23T03:32:47;32.90;;;20.80;;
63975;SDS011;50167;47.958;21.780;2023-03-23T03:35:14;34.67;;;21.03;;
63975;SDS011;50167;47.958;21.780;2023-03-23T03:37:41;33.07;;;20.43;;
63975;SDS011;50167;47.958;21.780;2023-03-23T03:40:10;33.60;;;20.37;;
63975;SDS011;50167;47.958;21.780;2023-03-23T03:42:40;32.57;;;18.73;;
63975;SDS011;50167;47.958;21.780;2023-03-23T03:45:09;32.90;;;19.30;;
63975;SDS011;50167;47.958;21.780;2023-03-23T03:47:39;34.98;;;20.32;;
63975;SDS011;50167;47.958;21.780;2023-03-23T03:50:06;34.47;;;21.50;;
63975;SDS011;50167;47.958;21.780;2023-03-23T03:52:34;38.90;;;22.73;;
63975;SDS011;50167;47.958;21.780;2023-03-23T03:55:01;36.37;;;20.87;;
63975;SDS011;50167;47.958;21.780;2023-03-23T03:57:27;36.23;;;21.13;;
63975;SDS011;50167;47.958;21.780;2023-03-23T03:59:53;40.23;;;23.33;;
63975;SDS011;50167;47.958;21.780;2023-03-23T04:02:20;33.63;;;19.77;;
63975;SDS011;50167;47.958;21.780;2023-03-23T04:04:47;33.83;;;20.23;;
63975;SDS011;50167;47.958;21.780;2023-03-23T04:07:15;31.07;;;19.40;;
63975;SDS011;50167;47.958;21.780;2023-03-23T04:09:43;29.53;;;17.40;;
63975;SDS011;50167;47.958;21.780;2023-03-23T04:12:13;28.83;;;20.13;;
63975;SDS011;50167;47.958;21.780;2023-03-23T04:14:40;38.07;;;19.70;;
63975;SDS011;50167;47.958;21.780;2023-03-23T04:17:06;34.80;;;19.33;;
63975;SDS011;50167;47.958;21.780;2023-03-23T04:19:35;36.03;;;20.63;;
63975;SDS011;50167;47.958;21.780;2023-03-23T04:22:03;34.30;;;21.27;;
63975;SDS011;50167;47.958;21.780;2023-03-23T04:24:30;31.53;;;20.63;;
63975;SDS011;50167;47.958;21.780;2023-03-23T04:26:59;36.50;;;20.33;;
63975;SDS011;50167;47.958;21.780;2023-03-23T04:29:26;34.10;;;20.30;;
63975;SDS011;50167;47.958;21.780;2023-03-23T04:31:52;36.07;;;21.80;;
63975;SDS011;50167;47.958;21.780;2023-03-23T04:34:21;30.97;;;18.40;;
63975;SDS011;50167;47.958;21.780;2023-03-23T04:36:48;32.07;;;18.43;;
63975;SDS011;50167;47.958;21.780;2023-03-23T04:39:16;31.10;;;18.33;;
63975;SDS011;50167;47.958;21.780;2023-03-23T04:41:43;33.27;;;19.97;;
63975;SDS011;50167;47.958;21.780;2023-03-23T04:44:11;31.37;;;19.60;;
63975;SDS011;50167;47.958;21.780;2023-03-23T04:46:39;33.57;;;19.10;;
63975;SDS011;50167;47.958;21.780;2023-03-23T04:49:06;38.13;;;20.27;;
63975;SDS011;50167;47.958;21.780;2023-03-23T04:51:32;34.13;;;20.53;;
63975;SDS011;50167;47.958;21.780;2023-03-23T04:54:00;32.73;;;19.77;;
63975;SDS011;50167;47.958;21.780;2023-03-23T04:56:27;31.43;;;19.73;;
63975;SDS011;50167;47.958;21.780;2023-03-23T04:58:53;32.20;;;19.50;;
63975;SDS011;50167;47.958;21.780;2023-03-23T05:01:20;29.90;;;19.80;;
63975;SDS011;50167;47.958;21.780;2023-03-23T05:03:46;31.57;;;18.23;;
63975;SDS011;50167;47.958;21.780;2023-03-23T05:06:13;28.50;;;18.57;;
63975;SDS011;50167;47.958;21.780;2023-03-23T05:08:39;34.60;;;21.53;;
63975;SDS011;50167;47.958;21.780;2023-03-23T05:11:06;28.07;;;18.23;;
63975;SDS011;50167;47.958;21.780;2023-03-23T05:13:33;35.57;;;21.83;;
63975;SDS011;50167;47.958;21.780;2023-03-23T05:16:04;151.17;;;77.90;;
63975;SDS011;50167;47.958;21.780;2023-03-23T05:18:31;33.27;;;21.20;;
63975;SDS011;50167;47.958;21.780;2023-03-23T05:21:03;35.07;;;20.73;;
63975;SDS011;50167;47.958;21.780;2023-03-23T05:23:30;35.53;;;20.60;;
63975;SDS011;50167;47.958;21.780;2023-03-23T05:25:57;38.30;;;22.10;;
63975;SDS011;50167;47.958;21.780;2023-03-23T05:32:51;31.87;;;18.40;;
63975;SDS011;50167;47.958;21.780;2023-03-23T05:35:17;27.50;;;17.67;;
63975;SDS011;50167;47.958;21.780;2023-03-23T05:37:45;30.80;;;18.73;;
63975;SDS011;50167;47.958;21.780;2023-03-23T05:40:12;28.47;;;18.40;;
63975;SDS011;50167;47.958;21.780;2023-03-23T05:42:39;32.23;;;19.20;;
63975;SDS011;50167;47.958;21.780;2023-03-23T05:45:06;30.03;;;18.47;;
63975;SDS011;50167;47.958;21.780;2023-03-23T05:47:38;27.60;;;18.93;;
63975;SDS011;50167;47.958;21.780;2023-03-23T05:50:06;31.20;;;20.50;;
63975;SDS011;50167;47.958;21.780;2023-03-23T05:52:38;26.63;;;18.90;;
63975;SDS011;50167;47.958;21.780;2023-03-23T05:55:05;28.03;;;18.53;;
63975;SDS011;50167;47.958;21.780;2023-03-23T05:57:33;32.20;;;19.57;;
63975;SDS011;50167;47.958;21.780;2023-03-23T05:59:59;24.27;;;17.83;;
63975;SDS011;50167;47.958;21.780;2023-03-23T06:02:28;29.10;;;17.50;;
63975;SDS011;50167;47.958;21.780;2023-03-23T06:04:54;27.80;;;19.00;;
63975;SDS011;50167;47.958;21.780;2023-03-23T06:07:26;33.10;;;18.53;;
63975;SDS011;50167;47.958;21.780;2023-03-23T06:09:51;29.97;;;20.07;;
63975;SDS011;50167;47.958;21.780;2023-03-23T06:12:18;29.83;;;17.13;;
63975;SDS011;50167;47.958;21.780;2023-03-23T06:14:46;26.27;;;17.43;;
63975;SDS011;50167;47.958;21.780;2023-03-23T06:17:15;26.47;;;17.23;;
63975;SDS011;50167;47.958;21.780;2023-03-23T06:19:42;27.27;;;17.47;;
63975;SDS011;50167;47.958;21.780;2023-03-23T06:22:11;26.80;;;17.60;;
63975;SDS011;50167;47.958;21.780;2023-03-23T06:24:37;33.27;;;19.07;;
63975;SDS011;50167;47.958;21.780;2023-03-23T06:27:03;25.53;;;19.00;;
63975;SDS011;50167;47.958;21.780;2023-03-23T06:29:29;31.93;;;17.73;;
63975;SDS011;50167;47.958;21.780;2023-03-23T06:31:57;26.77;;;18.60;;
63975;SDS011;50167;47.958;21.780;2023-03-23T06:36:54;30.13;;;18.93;;
63975;SDS011;50167;47.958;21.780;2023-03-23T06:39:21;26.30;;;16.63;;
63975;SDS011;50167;47.958;21.780;2023-03-23T06:41:47;23.67;;;17.00;;
63975;SDS011;50167;47.958;21.780;2023-03-23T06:44:14;44.03;;;16.70;;
63975;SDS011;50167;47.958;21.780;2023-03-23T06:46:41;32.87;;;17.97;;
63975;SDS011;50167;47.958;21.780;2023-03-23T06:49:07;30.27;;;17.40;;
63975;SDS011;50167;47.958;21.780;2023-03-23T06:51:35;30.17;;;18.47;;
63975;SDS011;50167;47.958;21.780;2023-03-23T06:54:03;30.27;;;19.37;;
63975;SDS011;50167;47.958;21.780;2023-03-23T06:56:30;29.10;;;19.60;;
63975;SDS011;50167;47.958;21.780;2023-03-23T06:58:57;25.70;;;16.90;;
63975;SDS011;50167;47.958;21.780;2023-03-23T07:01:23;46.47;;;19.40;;
63975;SDS011;50167;47.958;21.780;2023-03-23T07:03:49;25.57;;;16.63;;
63975;SDS011;50167;47.958;21.780;2023-03-23T07:06:16;33.00;;;17.93;;
63975;SDS011;50167;47.958;21.780;2023-03-23T07:08:42;27.03;;;17.07;;
63975;SDS011;50167;47.958;21.780;2023-03-23T07:11:08;26.47;;;17.50;;
63975;SDS011;50167;47.958;21.780;2023-03-23T07:13:36;27.97;;;16.77;;
63975;SDS011;50167;47.958;21.780;2023-03-23T07:16:04;23.73;;;16.87;;
63975;SDS011;50167;47.958;21.780;2023-03-23T07:18:31;27.87;;;17.47;;
63975;SDS011;50167;47.958;21.780;2023-03-23T07:20:58;23.73;;;16.40;;
63975;SDS011;50167;47.958;21.780;2023-03-23T07:23:25;22.87;;;16.13;;
63975;SDS011;50167;47.958;21.780;2023-03-23T07:25:51;45.73;;;14.97;;
63975;SDS011;50167;47.958;21.780;2023-03-23T07:28:19;22.90;;;14.87;;
63975;SDS011;50167;47.958;21.780;2023-03-23T07:30:45;24.07;;;16.23;;
63975;SDS011;50167;47.958;21.780;2023-03-23T07:33:11;20.27;;;15.07;;
63975;SDS011;50167;47.958;21.780;2023-03-23T07:35:38;21.33;;;15.27;;
63975;SDS011;50167;47.958;21.780;2023-03-23T07:38:05;25.90;;;16.87;;
63975;SDS011;50167;47.958;21.780;2023-03-23T07:40:32;31.53;;;17.43;;
63975;SDS011;50167;47.958;21.780;2023-03-23T07:42:59;28.00;;;16.20;;
63975;SDS011;50167;47.958;21.780;2023-03-23T07:45:27;24.13;;;16.23;;
63975;SDS011;50167;47.958;21.780;2023-03-23T07:47:55;22.33;;;14.37;;
63975;SDS011;50167;47.958;21.780;2023-03-23T07:50:22;24.47;;;16.40;;
63975;SDS011;50167;47.958;21.780;2023-03-23T07:52:50;27.00;;;14.63;;
63975;SDS011;50167;47.958;21.780;2023-03-23T07:55:21;27.20;;;14.50;;
63975;SDS011;50167;47.958;21.780;2023-03-23T07:57:49;17.00;;;12.13;;
63975;SDS011;50167;47.958;21.780;2023-03-23T08:00:17;22.53;;;14.67;;
63975;SDS011;50167;47.958;21.780;2023-03-23T08:02:46;23.40;;;12.67;;
63975;SDS011;50167;47.958;21.780;2023-03-23T08:05:14;32.10;;;12.50;;
63975;SDS011;50167;47.958;21.780;2023-03-23T08:07:41;22.30;;;13.27;;
63975;SDS011;50167;47.958;21.780;2023-03-23T08:10:08;29.17;;;15.43;;
63975;SDS011;50167;47.958;21.780;2023-03-23T08:12:37;26.17;;;14.43;;
63975;SDS011;50167;47.958;21.780;2023-03-23T08:15:08;24.77;;;14.47;;
63975;SDS011;50167;47.958;21.780;2023-03-23T08:17:40;20.30;;;12.97;;
63975;SDS011;50167;47.958;21.780;2023-03-23T08:20:08;47.00;;;25.13;;
63975;SDS011;50167;47.958;21.780;2023-03-23T08:22:42;28.23;;;17.40;;
63975;SDS011;50167;47.958;21.780;2023-03-23T08:25:12;28.90;;;19.23;;
63975;SDS011;50167;47.958;21.780;2023-03-23T08:27:41;27.93;;;14.57;;
63975;SDS011;50167;47.958;21.780;2023-03-23T08:30:14;20.33;;;15.97;;
63975;SDS011;50167;47.958;21.780;2023-03-23T08:32:39;28.13;;;16.73;;
63975;SDS011;50167;47.958;21.780;2023-03-23T08:35:06;19.03;;;13.30;;
63975;SDS011;50167;47.958;21.780;2023-03-23T08:37:35;23.57;;;11.93;;
63975;SDS011;50167;47.958;21.780;2023-03-23T08:40:02;19.50;;;11.63;;
63975;SDS011;50167;47.958;21.780;2023-03-23T08:42:35;13.37;;;10.60;;
63975;SDS011;50167;47.958;21.780;2023-03-23T08:45:09;18.10;;;11.97;;
63975;SDS011;50167;47.958;21.780;2023-03-23T08:47:34;19.67;;;11.10;;
63975;SDS011;50167;47.958;21.780;2023-03-23T08:50:03;18.13;;;11.50;;
63975;SDS011;50167;47.958;21.780;2023-03-23T08:52:32;16.80;;;10.77;;
63975;SDS011;50167;47.958;21.780;2023-03-23T08:54:58;11.30;;;7.77;;
63975;SDS011;50167;47.958;21.780;2023-03-23T08:57:28;11.07;;;6.10;;
63975;SDS011;50167;47.958;21.780;2023-03-23T08:59:54;9.53;;;6.00;;
63975;SDS011;50167;47.958;21.780;2023-03-23T09:02:22;9.23;;;6.97;;
63975;SDS011;50167;47.958;21.780;2023-03-23T09:04:49;12.50;;;8.23;;
63975;SDS011;50167;47.958;21.780;2023-03-23T09:07:15;15.90;;;9.13;;
63975;SDS011;50167;47.958;21.780;2023-03-23T09:09:42;14.97;;;8.57;;
63975;SDS011;50167;47.958;21.780;2023-03-23T09:12:09;11.93;;;7.57;;
63975;SDS011;50167;47.958;21.780;2023-03-23T09:14:36;16.33;;;7.17;;
63975;SDS011;50167;47.958;21.780;2023-03-23T09:17:04;7.23;;;6.07;;
63975;SDS011;50167;47.958;21.780;2023-03-23T09:19:32;11.83;;;6.13;;
63975;SDS011;50167;47.958;21.780;2023-03-23T09:22:00;8.10;;;6.33;;
63975;SDS011;50167;47.958;21.780;2023-03-23T09:24:29;9.50;;;5.23;;
63975;SDS011;50167;47.958;21.780;2023-03-23T09:26:56;10.63;;;5.80;;
63975;SDS011;50167;47.958;21.780;2023-03-23T09:29:24;7.97;;;6.03;;
63975;SDS011;50167;47.958;21.780;2023-03-23T09:31:52;7.67;;;6.30;;
63975;SDS011;50167;47.958;21.780;2023-03-23T09:34:21;7.30;;;5.80;;
63975;SDS011;50167;47.958;21.780;2023-03-23T09:36:48;12.03;;;5.20;;
63975;SDS011;50167;47.958;21.780;2023-03-23T09:39:15;10.77;;;5.90;;
63975;SDS011;50167;47.958;21.780;2023-03-23T09:44:52;10.33;;;5.70;;
63975;SDS011;50167;47.958;21.780;2023-03-23T09:50:25;8.23;;;5.00;;
63975;SDS011;50167;47.958;21.780;2023-03-23T09:53:03;8.43;;;5.30;;
63975;SDS011;50167;47.958;21.780;2023-03-23T09:55:44;18.20;;;5.13;;
63975;SDS011;50167;47.958;21.780;2023-03-23T10:01:06;6.15;;;4.78;;
63975;SDS011;50167;47.958;21.780;2023-03-23T10:04:00;8.57;;;5.13;;
63975;SDS011;50167;47.958;21.780;2023-03-23T10:06:46;9.97;;;6.20;;
63975;SDS011;50167;47.958;21.780;2023-03-23T10:09:14;7.67;;;5.50;;
63975;SDS011;50167;47.958;21.780;2023-03-23T10:11:50;6.12;;;5.22;;
63975;SDS011;50167;47.958;21.780;2023-03-23T10:17:13;9.53;;;5.50;;
63975;SDS011;50167;47.958;21.780;2023-03-23T10:22:31;8.33;;;5.53;;
63975;SDS011;50167;47.958;21.780;2023-03-23T10:25:15;9.18;;;5.53;;
63975;SDS011;50167;47.958;21.780;2023-03-23T10:30:37;8.10;;;5.93;;
63975;SDS011;50167;47.958;21.780;2023-03-23T10:38:26;6.60;;;5.12;;
63975;SDS011;50167;47.958;21.780;2023-03-23T10:41:01;8.78;;;4.87;;
63975;SDS011;50167;47.958;21.780;2023-03-23T10:43:34;7.87;;;5.00;;
63975;SDS011;50167;47.958;21.780;2023-03-23T10:46:02;7.45;;;5.35;;
63975;SDS011;50167;47.958;21.780;2023-03-23T10:48:43;6.37;;;4.83;;
63975;SDS011;50167;47.958;21.780;2023-03-23T10:51:12;8.20;;;4.85;;
63975;SDS011;50167;47.958;21.780;2023-03-23T10:53:45;7.25;;;5.30;;
63975;SDS011;50167;47.958;21.780;2023-03-23T10:56:25;5.10;;;4.42;;
63975;SDS011;50167;47.958;21.780;2023-03-23T10:58:54;8.55;;;4.72;;
63975;SDS011;50167;47.958;21.780;2023-03-23T11:01:31;7.50;;;4.55;;
63975;SDS011;50167;47.958;21.780;2023-03-23T11:04:01;5.87;;;4.30;;
63975;SDS011;50167;47.958;21.780;2023-03-23T11:06:30;4.92;;;4.10;;
63975;SDS011;50167;47.958;21.780;2023-03-23T11:09:18;7.95;;;4.28;;
63975;SDS011;50167;47.958;21.780;2023-03-23T11:11:48;7.12;;;4.05;;
63975;SDS011;50167;47.958;21.780;2023-03-23T11:14:27;4.95;;;4.45;;
63975;SDS011;50167;47.958;21.780;2023-03-23T11:19:30;6.70;;;4.17;;
63975;SDS011;50167;47.958;21.780;2023-03-23T11:24:41;4.85;;;4.35;;
63975;SDS011;50167;47.958;21.780;2023-03-23T11:27:13;7.85;;;4.08;;
63975;SDS011;50167;47.958;21.780;2023-03-23T11:29:55;8.13;;;4.10;;
63975;SDS011;50167;47.958;21.780;2023-03-23T11:32:27;6.40;;;3.90;;
63975;SDS011;50167;47.958;21.780;2023-03-23T11:35:00;4.30;;;3.67;;
63975;SDS011;50167;47.958;21.780;2023-03-23T11:37:45;9.75;;;4.62;;
63975;SDS011;50167;47.958;21.780;2023-03-23T11:40:21;4.22;;;3.83;;
63975;SDS011;50167;47.958;21.780;2023-03-23T11:54:02;12.07;;;4.65;;
63975;SDS011;50167;47.958;21.780;2023-03-23T11:56:43;12.13;;;3.55;;
63975;SDS011;50167;47.958;21.780;2023-03-23T11:59:15;6.80;;;3.80;;
63975;SDS011;50167;47.958;21.780;2023-03-23T12:20:59;10.58;;;4.58;;
63975;SDS011;50167;47.958;21.780;2023-03-23T12:27:16;4.67;;;3.25;;
63975;SDS011;50167;47.958;21.780;2023-03-23T12:30:02;10.15;;;4.25;;
63975;SDS011;50167;47.958;21.780;2023-03-23T12:32:56;5.65;;;3.95;;
63975;SDS011;50167;47.958;21.780;2023-03-23T12:35:42;8.40;;;3.45;;
63975;SDS011;50167;47.958;21.780;2023-03-23T12:44:18;4.50;;;3.33;;
63975;SDS011;50167;47.958;21.780;2023-03-23T12:46:52;7.60;;;3.08;;
63975;SDS011;50167;47.958;21.780;2023-03-23T12:49:29;9.13;;;2.75;;
63975;SDS011;50167;47.958;21.780;2023-03-23T12:52:14;6.08;;;3.10;;
63975;SDS011;50167;47.958;21.780;2023-03-23T12:54:58;5.37;;;2.50;;
63975;SDS011;50167;47.958;21.780;2023-03-23T13:00:21;3.75;;;2.62;;
63975;SDS011;50167;47.958;21.780;2023-03-23T13:03:14;4.35;;;2.90;;
63975;SDS011;50167;47.958;21.780;2023-03-23T13:06:04;11.83;;;2.62;;
63975;SDS011;50167;47.958;21.780;2023-03-23T13:08:59;10.75;;;2.75;;
63975;SDS011;50167;47.958;21.780;2023-03-23T13:11:48;5.35;;;2.80;;
63975;SDS011;50167;47.958;21.780;2023-03-23T13:17:09;3.83;;;2.37;;
63975;SDS011;50167;47.958;21.780;2023-03-23T13:23:18;2.87;;;2.52;;
63975;SDS011;50167;47.958;21.780;2023-03-23T13:25:59;5.80;;;2.15;;
63975;SDS011;50167;47.958;21.780;2023-03-23T13:31:32;4.65;;;3.27;;
63975;SDS011;50167;47.958;21.780;2023-03-23T13:39:36;10.72;;;8.53;;
63975;SDS011;50167;47.958;21.780;2023-03-23T13:42:28;7.33;;;2.80;;
63975;SDS011;50167;47.958;21.780;2023-03-23T13:45:06;7.42;;;3.55;;
63975;SDS011;50167;47.958;21.780;2023-03-23T13:47:47;5.20;;;3.42;;
63975;SDS011;50167;47.958;21.780;2023-03-23T13:52:52;9.28;;;3.17;;
63975;SDS011;50167;47.958;21.780;2023-03-23T13:55:27;9.93;;;2.70;;
63975;SDS011;50167;47.958;21.780;2023-03-23T14:03:40;2.00;;;1.72;;
63975;SDS011;50167;47.958;21.780;2023-03-23T14:06:13;3.92;;;2.27;;
63975;SDS011;50167;47.958;21.780;2023-03-23T14:08:43;10.80;;;1.95;;
63975;SDS011;50167;47.958;21.780;2023-03-23T14:11:16;4.17;;;3.00;;
63975;SDS011;50167;47.958;21.780;2023-03-23T14:19:17;5.95;;;2.85;;
63975;SDS011;50167;47.958;21.780;2023-03-23T14:21:53;9.63;;;3.58;;
63975;SDS011;50167;47.958;21.780;2023-03-23T14:27:14;7.37;;;2.27;;
63975;SDS011;50167;47.958;21.780;2023-03-23T14:29:43;2.58;;;2.27;;
63975;SDS011;50167;47.958;21.780;2023-03-23T14:32:12;6.10;;;3.65;;
63975;SDS011;50167;47.958;21.780;2023-03-23T14:34:41;7.00;;;3.00;;
63975;SDS011;50167;47.958;21.780;2023-03-23T14:37:12;8.83;;;2.50;;
63975;SDS011;50167;47.958;21.780;2023-03-23T14:39:43;8.60;;;3.98;;
63975;SDS011;50167;47.958;21.780;2023-03-23T14:42:16;7.97;;;4.00;;
63975;SDS011;50167;47.958;21.780;2023-03-23T14:44:46;15.25;;;6.03;;
63975;SDS011;50167;47.958;21.780;2023-03-23T14:49:55;5.17;;;2.92;;
63975;SDS011;50167;47.958;21.780;2023-03-23T14:52:25;6.50;;;3.08;;
63975;SDS011;50167;47.958;21.780;2023-03-23T14:55:06;6.00;;;3.80;;
63975;SDS011;50167;47.958;21.780;2023-03-23T14:57:42;5.12;;;3.72;;
63975;SDS011;50167;47.958;21.780;2023-03-23T15:00:13;6.22;;;4.80;;
63975;SDS011;50167;47.958;21.780;2023-03-23T15:02:53;7.00;;;3.60;;
63975;SDS011;50167;47.958;21.780;2023-03-23T15:05:26;8.18;;;6.42;;
63975;SDS011;50167;47.958;21.780;2023-03-23T15:08:03;11.15;;;3.80;;
63975;SDS011;50167;47.958;21.780;2023-03-23T15:10:36;8.63;;;5.08;;
63975;SDS011;50167;47.958;21.780;2023-03-23T15:13:04;10.90;;;6.30;;
63975;SDS011;50167;47.958;21.780;2023-03-23T15:15:31;22.95;;;13.03;;
63975;SDS011;50167;47.958;21.780;2023-03-23T15:18:01;17.77;;;7.62;;
63975;SDS011;50167;47.958;21.780;2023-03-23T15:20:45;15.32;;;5.83;;
63975;SDS011;50167;47.958;21.780;2023-03-23T15:23:21;12.60;;;6.15;;
63975;SDS011;50167;47.958;21.780;2023-03-23T15:25:55;11.30;;;4.65;;
63975;SDS011;50167;47.958;21.780;2023-03-23T15:28:30;5.87;;;3.77;;
63975;SDS011;50167;47.958;21.780;2023-03-23T15:31:02;3.83;;;2.92;;
63975;SDS011;50167;47.958;21.780;2023-03-23T15:33:39;7.00;;;3.22;;
63975;SDS011;50167;47.958;21.780;2023-03-23T15:36:07;20.17;;;4.90;;
63975;SDS011;50167;47.958;21.780;2023-03-23T15:38:44;11.30;;;4.47;;
63975;SDS011;50167;47.958;21.780;2023-03-23T15:41:23;4.40;;;4.00;;
63975;SDS011;50167;47.958;21.780;2023-03-23T15:43:56;10.13;;;3.85;;
63975;SDS011;50167;47.958;21.780;2023-03-23T15:46:27;5.80;;;3.42;;
63975;SDS011;50167;47.958;21.780;2023-03-23T15:51:29;10.10;;;4.95;;
63975;SDS011;50167;47.958;21.780;2023-03-23T15:53:58;8.88;;;4.95;;
63975;SDS011;50167;47.958;21.780;2023-03-23T15:56:24;6.83;;;4.22;;
63975;SDS011;50167;47.958;21.780;2023-03-23T15:58:52;7.45;;;3.47;;
63975;SDS011;50167;47.958;21.780;2023-03-23T16:01:24;5.95;;;4.20;;
63975;SDS011;50167;47.958;21.780;2023-03-23T16:04:06;10.68;;;3.15;;
63975;SDS011;50167;47.958;21.780;2023-03-23T16:06:36;9.07;;;3.43;;
63975;SDS011;50167;47.958;21.780;2023-03-23T16:09:04;6.90;;;3.30;;
63975;SDS011;50167;47.958;21.780;2023-03-23T16:11:32;10.73;;;3.50;;
63975;SDS011;50167;47.958;21.780;2023-03-23T16:13:59;8.00;;;3.50;;
63975;SDS011;50167;47.958;21.780;2023-03-23T16:16:31;10.13;;;3.40;;
63975;SDS011;50167;47.958;21.780;2023-03-23T16:19:05;12.17;;;4.40;;
63975;SDS011;50167;47.958;21.780;2023-03-23T16:21:32;18.37;;;4.03;;
63975;SDS011;50167;47.958;21.780;2023-03-23T16:23:58;15.60;;;4.77;;
63975;SDS011;50167;47.958;21.780;2023-03-23T16:26:24;14.40;;;5.33;;
63975;SDS011;50167;47.958;21.780;2023-03-23T16:28:51;20.13;;;5.33;;
63975;SDS011;50167;47.958;21.780;2023-03-23T16:31:17;45.30;;;8.00;;
63975;SDS011;50167;47.958;21.780;2023-03-23T16:33:43;19.23;;;8.17;;
63975;SDS011;50167;47.958;21.780;2023-03-23T16:36:10;18.40;;;6.87;;
63975;SDS011;50167;47.958;21.780;2023-03-23T16:38:38;22.47;;;6.17;;
63975;SDS011;50167;47.958;21.780;2023-03-23T16:41:06;19.43;;;9.17;;
63975;SDS011;50167;47.958;21.780;2023-03-23T16:43:33;58.17;;;31.37;;
63975;SDS011;50167;47.958;21.780;2023-03-23T16:46:02;44.20;;;30.97;;
63975;SDS011;50167;47.958;21.780;2023-03-23T16:48:28;37.30;;;25.20;;
63975;SDS011;50167;47.958;21.780;2023-03-23T16:50:54;39.77;;;22.73;;
63975;SDS011;50167;47.958;21.780;2023-03-23T16:53:22;103.67;;;27.77;;
63975;SDS011;50167;47.958;21.780;2023-03-23T16:55:52;84.13;;;25.33;;
63975;SDS011;50167;47.958;21.780;2023-03-23T16:58:18;70.93;;;25.53;;
63975;SDS011;50167;47.958;21.780;2023-03-23T17:00:47;65.97;;;22.97;;